Time;durP1;ratioP1;P1;durP2;ratioP2;P2;SDS_P1;SDS_P2;PMS_P1;PMS_P2;Temp;Humidity;BMP_temperature;BMP_pressure;BME280_temperature;BME280_humidity;BME280_pressure;Samples;Min_cycle;Max_cycle;Signal;HPM_P1;HPM_P2
2022/04/21 00:00:39;;;;;;;15.30;7.87;;;;;;;;;;4899902;29;20641;-71
2022/04/21 00:03:06;;;;;;;16.67;8.37;;;;;;;;;;4885539;29;20188;-72
2022/04/21 00:05:33;;;;;;;16.47;7.80;;;;;;;;;;4898774;29;20192;-72
2022/04/21 00:08:20;;;;;;;13.60;7.83;;;;;;;;;;4898806;29;20176;-72
2022/04/21 00:10:47;;;;;;;16.10;7.80;;;;;;;;;;4897234;29;20204;-72
2022/04/21 00:13:14;;;;;;;14.53;7.53;;;;;;;;;;4900033;29;20286;-72
2022/04/21 00:15:40;;;;;;;12.00;7.13;;;;;;;;;;4901746;29;20196;-72
2022/04/21 00:18:07;;;;;;;14.23;7.30;;;;;;;;;;4916633;29;20187;-72
2022/04/21 00:20:35;;;;;;;13.63;7.10;;;;;;;;;;4915087;29;20296;-72
2022/04/21 00:25:47;;;;;;;15.40;7.40;;;;;;;;;;4910914;29;20204;-72
2022/04/21 00:28:14;;;;;;;15.73;7.13;;;;;;;;;;4898759;29;20226;-72
2022/04/21 00:30:41;;;;;;;16.53;6.67;;;;;;;;;;4899359;29;20283;-72
2022/04/21 00:33:08;;;;;;;12.67;6.90;;;;;;;;;;4898495;29;20262;-72
2022/04/21 00:35:34;;;;;;;15.33;6.63;;;;;;;;;;4898700;29;20572;-72
2022/04/21 00:38:01;;;;;;;11.63;6.97;;;;;;;;;;4896866;29;20692;-72
2022/04/21 00:40:29;;;;;;;12.70;6.83;;;;;;;;;;4908904;29;20708;-72
2022/04/21 00:42:56;;;;;;;11.17;6.10;;;;;;;;;;4904496;29;20188;-72
2022/04/21 00:45:23;;;;;;;12.60;7.20;;;;;;;;;;4901097;29;20274;-72
2022/04/21 00:47:50;;;;;;;12.93;6.37;;;;;;;;;;4903165;29;20180;-72
2022/04/21 00:50:18;;;;;;;13.13;6.50;;;;;;;;;;4881873;29;20200;-72
2022/04/21 00:52:45;;;;;;;12.07;6.83;;;;;;;;;;4908974;29;20263;-72
2022/04/21 00:55:12;;;;;;;13.43;6.97;;;;;;;;;;4901132;29;20604;-72
2022/04/21 00:57:39;;;;;;;15.63;6.33;;;;;;;;;;4914296;29;20219;-72
2022/04/21 01:00:06;;;;;;;10.33;5.80;;;;;;;;;;4912609;29;20223;-72
2022/04/21 01:02:52;;;;;;;13.60;6.57;;;;;;;;;;4907900;29;20187;-72
2022/04/21 01:05:37;;;;;;;12.50;6.13;;;;;;;;;;4892422;29;20207;-72
2022/04/21 01:08:05;;;;;;;12.17;6.17;;;;;;;;;;4910237;29;20286;-72
2022/04/21 01:10:32;;;;;;;11.20;6.03;;;;;;;;;;4896523;29;20196;-72
2022/04/21 01:12:59;;;;;;;12.77;5.77;;;;;;;;;;4897833;29;20188;-72
2022/04/21 01:15:26;;;;;;;11.77;5.80;;;;;;;;;;4898039;29;20192;-72
2022/04/21 01:17:53;;;;;;;13.67;6.37;;;;;;;;;;4908861;29;20200;-72
2022/04/21 01:20:23;;;;;;;13.80;6.70;;;;;;;;;;4881166;29;20307;-72
2022/04/21 01:22:50;;;;;;;13.30;5.70;;;;;;;;;;4897642;29;20762;-72
2022/04/21 01:25:17;;;;;;;11.20;5.70;;;;;;;;;;4902974;29;20270;-72
2022/04/21 01:27:44;;;;;;;9.93;5.87;;;;;;;;;;4916369;29;20200;-72
2022/04/21 01:30:11;;;;;;;14.17;6.70;;;;;;;;;;4899545;29;20225;-72
2022/04/21 01:32:42;;;;;;;13.57;6.03;;;;;;;;;;4880860;29;20192;-72
2022/04/21 01:35:09;;;;;;;10.20;5.73;;;;;;;;;;4882127;29;20228;-72
2022/04/21 01:43:10;;;;;;;11.03;5.40;;;;;;;;;;4882828;29;20593;-72
2022/04/21 01:45:37;;;;;;;9.43;5.57;;;;;;;;;;4881003;29;20275;-72
2022/04/21 01:48:04;;;;;;;10.93;5.80;;;;;;;;;;4895618;29;20192;-72
2022/04/21 01:50:31;;;;;;;10.47;5.50;;;;;;;;;;4915045;29;20187;-72
2022/04/21 01:52:58;;;;;;;10.77;5.40;;;;;;;;;;4915845;29;20180;-72
2022/04/21 01:55:25;;;;;;;8.77;5.80;;;;;;;;;;4915560;29;20275;-72
2022/04/21 01:57:52;;;;;;;9.37;5.50;;;;;;;;;;4915576;29;20215;-72
2022/04/21 02:00:19;;;;;;;11.13;5.30;;;;;;;;;;4911044;29;20219;-72
2022/04/21 02:02:46;;;;;;;10.23;6.00;;;;;;;;;;4909215;29;20561;-72
2022/04/21 02:05:13;;;;;;;12.07;6.13;;;;;;;;;;4883520;29;20200;-72
2022/04/21 02:07:44;;;;;;;9.03;5.13;;;;;;;;;;4913768;29;20203;-72
2022/04/21 02:10:11;;;;;;;12.17;5.60;;;;;;;;;;4914588;29;20187;-72
2022/04/21 02:12:38;;;;;;;11.63;6.00;;;;;;;;;;4915367;29;20813;-72
2022/04/21 02:15:06;;;;;;;10.80;5.90;;;;;;;;;;4897280;29;20290;-72
2022/04/21 02:17:33;;;;;;;12.80;5.93;;;;;;;;;;4896608;29;20220;-72
2022/04/21 02:20:00;;;;;;;9.70;5.13;;;;;;;;;;4874913;29;20310;-72
2022/04/21 02:22:27;;;;;;;12.63;5.43;;;;;;;;;;4881212;29;20870;-72
2022/04/21 02:24:53;;;;;;;11.10;5.30;;;;;;;;;;4908016;29;20579;-72
2022/04/21 02:27:20;;;;;;;10.87;5.57;;;;;;;;;;4897343;29;20263;-72
2022/04/21 02:29:48;;;;;;;10.90;5.40;;;;;;;;;;4908154;29;20194;-72
2022/04/21 02:32:15;;;;;;;11.57;5.50;;;;;;;;;;4914113;29;20218;-74
2022/04/21 02:34:43;;;;;;;9.63;5.47;;;;;;;;;;4903247;29;20232;-73
2022/04/21 02:37:10;;;;;;;14.70;5.40;;;;;;;;;;4896224;29;20256;-73
2022/04/21 02:39:37;;;;;;;9.50;5.70;;;;;;;;;;4902636;29;20193;-73
2022/04/21 02:42:04;;;;;;;12.60;6.20;;;;;;;;;;4896213;29;20593;-74
2022/04/21 02:44:49;;;;;;;12.50;5.93;;;;;;;;;;4896266;29;20236;-73
2022/04/21 02:47:16;;;;;;;12.57;6.30;;;;;;;;;;4894953;29;20224;-73
2022/04/21 02:49:46;;;;;;;13.50;6.03;;;;;;;;;;4907841;29;20196;-73
2022/04/21 02:52:12;;;;;;;10.67;5.97;;;;;;;;;;4885644;29;20203;-73
2022/04/21 02:57:26;;;;;;;12.00;6.07;;;;;;;;;;4884282;29;20238;-73
2022/04/21 02:59:55;;;;;;;13.13;6.63;;;;;;;;;;4914562;29;20235;-73
2022/04/21 03:02:22;;;;;;;13.80;6.73;;;;;;;;;;4897540;29;20191;-73
2022/04/21 03:04:49;;;;;;;13.07;6.80;;;;;;;;;;4894886;29;20591;-73
2022/04/21 03:07:17;;;;;;;11.87;6.40;;;;;;;;;;4907521;29;20203;-74
2022/04/21 03:09:44;;;;;;;10.00;6.20;;;;;;;;;;4910608;29;20198;-72
2022/04/21 03:12:11;;;;;;;13.07;5.63;;;;;;;;;;4914197;29;20189;-78
2022/04/21 03:14:38;;;;;;;13.43;6.30;;;;;;;;;;4913677;29;20347;-75
2022/04/21 03:17:05;;;;;;;11.27;5.63;;;;;;;;;;4893130;29;20274;-75
2022/04/21 03:19:32;;;;;;;12.43;6.00;;;;;;;;;;4884013;29;20254;-79
2022/04/21 03:24:45;;;;;;;11.03;6.10;;;;;;;;;;4898364;29;20615;-76
2022/04/21 03:27:12;;;;;;;10.93;6.23;;;;;;;;;;4922481;29;20610;-74
2022/04/21 03:29:40;;;;;;;9.17;5.90;;;;;;;;;;4922126;29;20203;-74
2022/04/21 03:32:09;;;;;;;13.10;6.80;;;;;;;;;;4900906;29;20202;-71
2022/04/21 03:34:39;;;;;;;10.90;6.13;;;;;;;;;;4898213;29;20314;-72
2022/04/21 03:37:07;;;;;;;9.20;5.90;;;;;;;;;;4901627;29;20205;-74
2022/04/21 03:39:35;;;;;;;10.83;5.97;;;;;;;;;;4918719;29;20195;-75
2022/04/21 03:42:03;;;;;;;11.13;6.00;;;;;;;;;;4889759;29;20258;-74
2022/04/21 03:44:31;;;;;;;10.27;6.00;;;;;;;;;;4917250;29;20286;-78
2022/04/21 03:46:58;;;;;;;16.97;6.20;;;;;;;;;;4902771;29;20673;-73
2022/04/21 03:49:25;;;;;;;22.40;6.20;;;;;;;;;;4923640;29;20716;-75
2022/04/21 03:51:52;;;;;;;13.17;5.77;;;;;;;;;;4899507;29;20203;-75
2022/04/21 03:54:19;;;;;;;9.03;4.80;;;;;;;;;;4884310;29;20278;-77
2022/04/21 03:56:46;;;;;;;9.37;5.00;;;;;;;;;;4913400;29;20191;-75
2022/04/21 03:59:13;;;;;;;9.33;5.03;;;;;;;;;;4899189;29;20201;-76
2022/04/21 04:01:40;;;;;;;7.70;5.37;;;;;;;;;;4916366;29;20912;-75
2022/04/21 04:04:07;;;;;;;10.77;5.40;;;;;;;;;;4913271;29;20218;-75
2022/04/21 04:12:23;;;;;;;10.67;5.60;;;;;;;;;;4915240;29;20198;-73
2022/04/21 04:14:50;;;;;;;8.83;5.43;;;;;;;;;;4871250;29;20331;-72
2022/04/21 04:17:17;;;;;;;13.97;5.80;;;;;;;;;;4885661;29;20199;-75
2022/04/21 04:19:44;;;;;;;15.77;6.07;;;;;;;;;;4891202;29;20207;-77
2022/04/21 04:22:14;;;;;;;15.20;5.87;;;;;;;;;;4922208;29;20211;-71
2022/04/21 04:24:43;;;;;;;16.53;6.50;;;;;;;;;;4919532;29;20202;-72
2022/04/21 04:27:10;;;;;;;10.17;5.90;;;;;;;;;;4917783;29;20945;-73
2022/04/21 04:29:37;;;;;;;12.57;6.20;;;;;;;;;;4913129;29;20294;-76
2022/04/21 04:32:03;;;;;;;14.57;6.77;;;;;;;;;;4915052;29;20219;-76
2022/04/21 04:34:30;;;;;;;16.83;6.17;;;;;;;;;;4903832;29;20743;-75
2022/04/21 04:36:57;;;;;;;13.87;6.93;;;;;;;;;;4926768;29;20345;-74
2022/04/21 04:39:25;;;;;;;12.73;6.17;;;;;;;;;;4918569;29;20190;-75
2022/04/21 04:44:39;;;;;;;10.97;5.57;;;;;;;;;;4915848;29;20205;-74
2022/04/21 04:47:23;;;;;;;13.63;5.63;;;;;;;;;;4920125;29;20175;-74
2022/04/21 04:49:50;;;;;;;13.77;5.27;;;;;;;;;;4914264;29;20616;-73
2022/04/21 04:52:18;;;;;;;11.00;4.87;;;;;;;;;;4913990;29;20278;-74
2022/04/21 04:54:45;;;;;;;11.23;4.80;;;;;;;;;;4899936;29;20228;-73
2022/04/21 04:57:12;;;;;;;8.33;4.57;;;;;;;;;;4884148;29;20191;-74
2022/04/21 04:59:39;;;;;;;8.50;4.40;;;;;;;;;;4905298;29;20204;-74
2022/04/21 05:02:05;;;;;;;7.83;4.23;;;;;;;;;;4901015;29;20262;-74
2022/04/21 05:04:33;;;;;;;6.63;4.10;;;;;;;;;;4883759;29;20207;-74
2022/04/21 05:06:59;;;;;;;6.70;3.90;;;;;;;;;;4922646;29;20213;-74
2022/04/21 05:09:26;;;;;;;7.93;4.63;;;;;;;;;;4895436;29;20229;-74
2022/04/21 05:11:53;;;;;;;6.33;3.40;;;;;;;;;;4903985;29;20834;-74
2022/04/21 05:14:20;;;;;;;10.63;3.73;;;;;;;;;;4881168;29;20639;-73
2022/04/21 05:16:47;;;;;;;6.30;3.73;;;;;;;;;;4880840;29;20238;-73
2022/04/21 05:19:16;;;;;;;6.80;3.90;;;;;;;;;;4898658;29;20664;-73
2022/04/21 05:21:43;;;;;;;6.87;3.67;;;;;;;;;;4915875;29;20246;-73
2022/04/21 05:24:10;;;;;;;6.20;3.77;;;;;;;;;;4890613;29;20282;-74
2022/04/21 05:26:38;;;;;;;7.70;3.20;;;;;;;;;;4893918;29;20209;-74
2022/04/21 05:31:55;;;;;;;6.00;2.90;;;;;;;;;;4897638;29;20655;-75
2022/04/21 05:34:22;;;;;;;6.23;3.07;;;;;;;;;;4898674;29;20250;-75
2022/04/21 05:36:49;;;;;;;6.20;2.67;;;;;;;;;;4917825;29;20277;-75
2022/04/21 05:39:16;;;;;;;18.93;3.87;;;;;;;;;;4916171;29;20233;-75
2022/04/21 05:41:44;;;;;;;4.77;2.63;;;;;;;;;;4882147;29;20746;-75
2022/04/21 05:44:11;;;;;;;6.37;3.00;;;;;;;;;;4882888;29;20200;-75
2022/04/21 05:46:38;;;;;;;4.57;2.57;;;;;;;;;;4899087;29;20192;-74
2022/04/21 05:49:05;;;;;;;4.90;2.47;;;;;;;;;;4881425;29;20189;-74
2022/04/21 05:51:32;;;;;;;5.30;2.63;;;;;;;;;;4921025;29;20194;-75
2022/04/21 05:53:59;;;;;;;5.03;2.87;;;;;;;;;;4899492;29;20192;-73
2022/04/21 05:56:26;;;;;;;4.53;2.70;;;;;;;;;;4902862;29;20215;-77
2022/04/21 05:58:53;;;;;;;4.60;2.67;;;;;;;;;;4915760;29;20254;-75
2022/04/21 06:01:20;;;;;;;9.13;3.17;;;;;;;;;;4894633;29;20222;-73
2022/04/21 06:03:48;;;;;;;5.67;2.77;;;;;;;;;;4921837;29;20659;-73
2022/04/21 06:06:15;;;;;;;20.47;4.37;;;;;;;;;;4914196;29;20219;-73
2022/04/21 06:08:42;;;;;;;7.40;2.63;;;;;;;;;;4915808;29;20203;-73
2022/04/21 06:11:09;;;;;;;10.33;4.20;;;;;;;;;;4899152;29;20194;-73
2022/04/21 06:13:36;;;;;;;5.93;2.47;;;;;;;;;;4902318;29;20239;-74
2022/04/21 06:16:03;;;;;;;4.97;2.53;;;;;;;;;;4913830;29;20207;-74
2022/04/21 06:18:30;;;;;;;8.00;2.60;;;;;;;;;;4896019;29;20732;-73
2022/04/21 06:20:59;;;;;;;7.47;2.90;;;;;;;;;;4903782;29;20219;-74
2022/04/21 06:23:26;;;;;;;8.73;2.70;;;;;;;;;;4885647;29;20339;-73
2022/04/21 06:25:58;;;;;;;8.33;2.90;;;;;;;;;;4901829;29;20701;-74
2022/04/21 06:28:25;;;;;;;4.07;2.40;;;;;;;;;;4913671;29;20200;-73
2022/04/21 06:30:52;;;;;;;11.77;2.80;;;;;;;;;;4910102;29;20191;-73
2022/04/21 06:33:19;;;;;;;9.87;3.00;;;;;;;;;;4894370;29;20192;-73
2022/04/21 06:35:46;;;;;;;5.47;2.60;;;;;;;;;;4887849;29;20191;-73
2022/04/21 06:38:13;;;;;;;18.53;3.40;;;;;;;;;;4912639;29;20218;-73
2022/04/21 06:40:40;;;;;;;20.23;3.40;;;;;;;;;;4916484;29;20199;-73
2022/04/21 06:48:40;;;;;;;6.27;2.37;;;;;;;;;;4912427;29;20293;-72
2022/04/21 06:51:07;;;;;;;7.60;2.73;;;;;;;;;;4929404;29;20764;-73
2022/04/21 06:53:34;;;;;;;20.87;3.63;;;;;;;;;;4912663;29;20195;-73
2022/04/21 06:56:04;;;;;;;8.77;2.20;;;;;;;;;;4929183;29;20590;-73
2022/04/21 06:58:31;;;;;;;14.13;3.10;;;;;;;;;;4929674;29;20623;-72
2022/04/21 07:00:58;;;;;;;30.17;4.20;;;;;;;;;;4912141;29;20218;-73
2022/04/21 07:03:25;;;;;;;9.30;2.93;;;;;;;;;;4912013;29;20852;-73
2022/04/21 07:05:55;;;;;;;5.00;2.50;;;;;;;;;;4912656;29;20203;-72
2022/04/21 07:08:22;;;;;;;10.20;2.97;;;;;;;;;;4920524;29;20233;-73
2022/04/21 07:10:49;;;;;;;5.73;2.40;;;;;;;;;;4919921;29;20286;-73
2022/04/21 07:13:16;;;;;;;4.13;2.10;;;;;;;;;;4911436;29;20877;-72
2022/04/21 07:15:43;;;;;;;6.20;2.23;;;;;;;;;;4908814;29;20675;-74
2022/04/21 07:18:10;;;;;;;4.00;2.63;;;;;;;;;;4913789;29;20868;-73
2022/04/21 07:20:37;;;;;;;6.07;2.47;;;;;;;;;;4884031;29;20251;-74
2022/04/21 07:23:04;;;;;;;5.27;2.30;;;;;;;;;;4883184;29;20253;-74
2022/04/21 07:25:32;;;;;;;3.03;2.03;;;;;;;;;;4914087;29;20194;-74
2022/04/21 07:27:59;;;;;;;5.50;2.50;;;;;;;;;;4892980;29;20200;-75
2022/04/21 07:30:25;;;;;;;5.47;2.67;;;;;;;;;;4875023;29;20198;-73
2022/04/21 07:32:52;;;;;;;5.00;2.53;;;;;;;;;;4914169;29;20197;-74
2022/04/21 07:35:20;;;;;;;4.33;2.37;;;;;;;;;;4895746;29;21073;-74
2022/04/21 07:37:47;;;;;;;18.47;3.47;;;;;;;;;;4899569;29;20190;-72
2022/04/21 07:40:14;;;;;;;3.80;2.17;;;;;;;;;;4892972;29;20214;-73
2022/04/21 07:42:45;;;;;;;7.07;2.47;;;;;;;;;;4892020;29;20214;-72
2022/04/21 07:45:12;;;;;;;23.77;3.50;;;;;;;;;;4893262;29;20247;-74
2022/04/21 07:47:39;;;;;;;6.73;2.90;;;;;;;;;;4878254;29;20206;-75
2022/04/21 07:50:06;;;;;;;8.20;2.70;;;;;;;;;;4881840;29;20211;-74
2022/04/21 07:55:25;;;;;;;3.10;2.33;;;;;;;;;;4895464;29;20518;-75
2022/04/21 07:57:55;;;;;;;4.90;2.63;;;;;;;;;;4893171;29;20198;-75
2022/04/21 08:00:23;;;;;;;5.07;2.23;;;;;;;;;;4860111;29;20204;-72
2022/04/21 08:02:50;;;;;;;5.93;2.73;;;;;;;;;;4914458;29;20230;-72
2022/04/21 08:05:18;;;;;;;5.50;2.50;;;;;;;;;;4896156;29;20195;-73
2022/04/21 08:07:45;;;;;;;3.53;2.37;;;;;;;;;;4899728;29;20203;-73
2022/04/21 08:10:17;;;;;;;7.87;2.70;;;;;;;;;;4874837;29;20753;-74
2022/04/21 08:12:45;;;;;;;8.90;2.50;;;;;;;;;;4902443;29;20655;-73
2022/04/21 08:15:13;;;;;;;8.30;2.10;;;;;;;;;;4899289;29;20191;-73
2022/04/21 08:17:40;;;;;;;6.50;2.20;;;;;;;;;;4875379;29;20192;-73
2022/04/21 08:20:08;;;;;;;4.13;2.37;;;;;;;;;;4894483;29;20203;-72
2022/04/21 08:22:35;;;;;;;7.37;2.77;;;;;;;;;;4875864;29;20247;-70
2022/04/21 08:33:24;;;;;;;9.73;3.07;;;;;;;;;;4896984;29;20227;-73
2022/04/21 08:35:57;;;;;;;8.53;2.93;;;;;;;;;;4917175;29;20212;-73
2022/04/21 08:38:24;;;;;;;10.83;3.07;;;;;;;;;;4905047;29;20611;-70
2022/04/21 08:40:52;;;;;;;9.50;3.03;;;;;;;;;;4900303;29;20567;-70
2022/04/21 08:43:19;;;;;;;6.50;2.90;;;;;;;;;;4896979;29;20580;-70
2022/04/21 08:45:46;;;;;;;8.83;3.03;;;;;;;;;;4896780;29;20730;-72
2022/04/21 08:48:14;;;;;;;12.83;3.57;;;;;;;;;;4897732;29;20199;-71
2022/04/21 08:50:41;;;;;;;5.37;2.60;;;;;;;;;;4916486;29;20635;-72
2022/04/21 08:53:09;;;;;;;14.87;3.47;;;;;;;;;;4899916;29;20197;-72
2022/04/21 08:55:36;;;;;;;10.40;2.70;;;;;;;;;;4884828;29;20198;-74
2022/04/21 08:58:03;;;;;;;7.50;2.73;;;;;;;;;;4881520;29;20531;-74
2022/04/21 09:00:33;;;;;;;7.37;2.83;;;;;;;;;;4878280;29;20306;-73
2022/04/21 09:03:02;;;;;;;6.83;2.50;;;;;;;;;;4863766;29;20262;-73
2022/04/21 09:05:29;;;;;;;4.83;2.30;;;;;;;;;;4891790;29;20219;-73
2022/04/21 09:07:57;;;;;;;7.20;2.80;;;;;;;;;;4877223;29;20340;-73
2022/04/21 09:10:44;;;;;;;4.67;2.20;;;;;;;;;;4894787;29;20610;-73
2022/04/21 09:13:11;;;;;;;5.10;1.97;;;;;;;;;;4915953;29;20656;-70
2022/04/21 09:15:43;;;;;;;8.37;2.60;;;;;;;;;;4927116;29;20203;-74
2022/04/21 09:18:10;;;;;;;4.60;2.00;;;;;;;;;;4914525;29;20199;-73
2022/04/21 09:20:39;;;;;;;3.37;2.07;;;;;;;;;;4905667;29;20251;-72
2022/04/21 09:23:07;;;;;;;5.83;1.80;;;;;;;;;;4885562;29;20651;-71
2022/04/21 09:25:47;;;;;;;3.33;1.80;;;;;;;;;;4895968;29;20596;-71
2022/04/21 09:28:21;;;;;;;8.20;2.00;;;;;;;;;;4889244;29;20214;-70
2022/04/21 09:30:49;;;;;;;13.60;2.87;;;;;;;;;;4896500;29;20284;-70
2022/04/21 09:33:24;;;;;;;5.63;1.70;;;;;;;;;;4894410;29;20655;-70
2022/04/21 09:35:52;;;;;;;3.53;1.70;;;;;;;;;;4893657;29;20627;-69
2022/04/21 09:38:19;;;;;;;3.70;1.80;;;;;;;;;;4909675;29;20936;-70
2022/04/21 09:40:47;;;;;;;4.03;1.80;;;;;;;;;;4909328;29;20192;-70
2022/04/21 09:43:14;;;;;;;3.40;1.70;;;;;;;;;;4910804;29;20226;-69
2022/04/21 09:48:29;;;;;;;3.97;1.50;;;;;;;;;;4909047;29;20203;-71
2022/04/21 09:51:08;;;;;;;4.87;1.90;;;;;;;;;;4915040;29;20206;-70
2022/04/21 09:54:05;;;;;;;4.77;1.53;;;;;;;;;;4922701;29;20188;-69
2022/04/21 09:56:35;;;;;;;6.80;1.57;;;;;;;;;;4894457;29;20603;-69
2022/04/21 09:59:04;;;;;;;4.10;1.70;;;;;;;;;;4891836;29;20224;-68
2022/04/21 10:01:33;;;;;;;10.70;2.30;;;;;;;;;;4900185;29;20230;-67
2022/04/21 10:04:00;;;;;;;2.10;1.57;;;;;;;;;;4900950;29;20199;-69
2022/04/21 10:06:27;;;;;;;5.10;1.60;;;;;;;;;;4886720;29;20196;-71
2022/04/21 10:08:54;;;;;;;4.20;1.73;;;;;;;;;;4877912;29;20274;-70
2022/04/21 10:11:25;;;;;;;3.90;1.57;;;;;;;;;;4883253;29;20230;-72
2022/04/21 10:13:53;;;;;;;5.93;1.43;;;;;;;;;;4909751;29;20291;-72
2022/04/21 10:16:20;;;;;;;3.70;1.47;;;;;;;;;;4895725;29;20258;-72
2022/04/21 10:18:50;;;;;;;2.53;1.70;;;;;;;;;;4904751;29;20196;-71
2022/04/21 10:21:18;;;;;;;2.60;1.50;;;;;;;;;;4884554;29;20236;-71
2022/04/21 10:23:45;;;;;;;14.43;2.17;;;;;;;;;;4871847;29;20726;-71
2022/04/21 10:26:12;;;;;;;3.17;1.40;;;;;;;;;;4915540;29;20277;-72
2022/04/21 10:28:59;;;;;;;3.67;1.50;;;;;;;;;;4912489;29;20282;-72
2022/04/21 10:31:32;;;;;;;4.83;1.57;;;;;;;;;;4877781;29;20192;-72
2022/04/21 10:34:00;;;;;;;2.63;1.80;;;;;;;;;;4892400;29;20238;-70
2022/04/21 10:36:33;;;;;;;1.70;1.20;;;;;;;;;;4913769;29;20231;-71
2022/04/21 10:39:19;;;;;;;8.00;1.60;;;;;;;;;;4896547;29;20213;-71
2022/04/21 10:41:46;;;;;;;3.43;1.53;;;;;;;;;;4915866;29;20282;-69
2022/04/21 10:44:17;;;;;;;2.33;1.30;;;;;;;;;;4916299;29;20191;-69
2022/04/21 10:46:44;;;;;;;3.43;1.57;;;;;;;;;;4898197;29;21005;-69
2022/04/21 10:50:01;;;;;;;6.50;1.80;;;;;;;;;;4895100;29;20191;-69
2022/04/21 10:57:47;;;;;;;3.23;1.80;;;;;;;;;;4893375;29;20215;-72
2022/04/21 11:00:24;;;;;;;6.70;1.77;;;;;;;;;;4900192;29;20255;-70
2022/04/21 11:03:03;;;;;;;1.77;1.40;;;;;;;;;;4895595;29;20221;-70
2022/04/21 11:05:31;;;;;;;5.03;1.80;;;;;;;;;;4895484;29;20187;-70
2022/04/21 11:07:59;;;;;;;1.77;1.27;;;;;;;;;;4912419;29;20302;-70
2022/04/21 11:10:25;;;;;;;2.43;1.50;;;;;;;;;;4912451;29;20357;-70
2022/04/21 11:12:52;;;;;;;2.27;1.37;;;;;;;;;;4912611;29;20231;-70
2022/04/21 11:15:32;;;;;;;2.37;1.53;;;;;;;;;;4895482;29;20298;-70
2022/04/21 11:18:00;;;;;;;5.63;1.70;;;;;;;;;;4912103;29;20199;-70
2022/04/21 11:20:26;;;;;;;2.67;1.30;;;;;;;;;;4912059;29;20183;-70
2022/04/21 11:22:53;;;;;;;2.53;1.57;;;;;;;;;;4912174;29;20642;-70
2022/04/21 11:25:20;;;;;;;2.07;1.50;;;;;;;;;;4912393;29;20183;-70
2022/04/21 11:27:47;;;;;;;3.80;1.80;;;;;;;;;;4879901;29;20214;-70
2022/04/21 11:30:14;;;;;;;2.17;1.53;;;;;;;;;;4895400;29;20201;-70
2022/04/21 11:32:51;;;;;;;3.40;1.37;;;;;;;;;;4911542;29;20357;-70
2022/04/21 11:35:18;;;;;;;5.57;2.03;;;;;;;;;;4911971;29;20250;-70
2022/04/21 11:37:52;;;;;;;2.80;1.33;;;;;;;;;;4895113;29;20202;-70
2022/04/21 11:40:22;;;;;;;3.67;1.70;;;;;;;;;;4895461;29;20196;-70
2022/04/21 11:42:51;;;;;;;5.77;1.50;;;;;;;;;;4914371;29;20211;-70
2022/04/21 11:45:19;;;;;;;4.60;1.63;;;;;;;;;;4899568;29;20200;-70
2022/04/21 11:47:45;;;;;;;14.13;2.17;;;;;;;;;;4915995;29;20627;-70
2022/04/21 11:50:17;;;;;;;5.20;1.90;;;;;;;;;;4899086;29;20215;-70
2022/04/21 11:52:47;;;;;;;3.33;2.00;;;;;;;;;;4915640;29;20283;-70
2022/04/21 11:55:16;;;;;;;2.27;1.83;;;;;;;;;;4899460;29;20682;-70
2022/04/21 11:57:43;;;;;;;3.40;1.70;;;;;;;;;;4898626;29;20203;-71
2022/04/21 12:00:10;;;;;;;5.80;1.60;;;;;;;;;;4883706;29;20196;-71
2022/04/21 12:08:08;;;;;;;2.97;1.80;;;;;;;;;;4915552;29;20268;-70
2022/04/21 12:10:35;;;;;;;2.03;1.60;;;;;;;;;;4898710;29;20246;-70
2022/04/21 12:13:02;;;;;;;3.77;1.67;;;;;;;;;;4883451;29;20656;-70
2022/04/21 12:15:30;;;;;;;3.73;1.80;;;;;;;;;;4898597;29;20192;-70
2022/04/21 12:18:03;;;;;;;2.83;1.63;;;;;;;;;;4898616;29;20240;-70
2022/04/21 12:20:30;;;;;;;3.40;2.10;;;;;;;;;;4898343;29;20192;-70
2022/04/21 12:22:56;;;;;;;4.83;1.70;;;;;;;;;;4898330;29;20282;-70
2022/04/21 12:25:30;;;;;;;3.93;2.00;;;;;;;;;;4898210;29;20191;-70
2022/04/21 12:28:07;;;;;;;7.30;2.07;;;;;;;;;;4915438;29;20591;-71
2022/04/21 12:30:38;;;;;;;3.30;1.80;;;;;;;;;;4915402;29;20192;-70
2022/04/21 12:33:05;;;;;;;2.70;2.00;;;;;;;;;;4898055;29;20179;-70
2022/04/21 12:35:46;;;;;;;11.30;2.00;;;;;;;;;;4898510;29;20670;-70
2022/04/21 12:41:50;;;;;;;3.53;2.17;;;;;;;;;;4872372;29;20208;-70
2022/04/21 12:44:18;;;;;;;5.13;1.77;;;;;;;;;;4894751;29;20216;-70
2022/04/21 12:47:01;;;;;;;5.70;1.93;;;;;;;;;;4894885;29;20188;-70
2022/04/21 12:49:47;;;;;;;1.77;1.50;;;;;;;;;;4879114;29;20255;-70
2022/04/21 12:52:35;;;;;;;4.30;1.80;;;;;;;;;;4896370;29;20188;-69
2022/04/21 12:55:22;;;;;;;3.90;1.60;;;;;;;;;;4895079;29;20252;-69
2022/04/21 12:57:58;;;;;;;2.70;1.57;;;;;;;;;;4889773;29;20728;-70
2022/04/21 13:00:25;;;;;;;3.20;1.40;;;;;;;;;;4894567;29;20561;-70
2022/04/21 13:02:52;;;;;;;2.63;1.70;;;;;;;;;;4895717;29;20219;-70
2022/04/21 13:05:19;;;;;;;3.37;1.50;;;;;;;;;;4895439;29;20235;-70
2022/04/21 13:07:46;;;;;;;3.73;2.10;;;;;;;;;;4878615;29;20564;-70
2022/04/21 13:10:12;;;;;;;3.80;1.50;;;;;;;;;;4894547;29;20605;-70
2022/04/21 13:12:39;;;;;;;3.17;1.57;;;;;;;;;;4895537;29;20260;-70
2022/04/21 13:15:06;;;;;;;3.23;1.37;;;;;;;;;;4878502;29;20560;-70
2022/04/21 13:17:51;;;;;;;3.03;1.40;;;;;;;;;;4894493;29;20183;-70
2022/04/21 13:21:52;;;;;;;22.77;3.33;;;;;;;;;;4895398;29;20196;-70
2022/04/21 13:23:05;;;;;;;4.27;1.43;;;;;;;;;;4895083;29;20208;-70
2022/04/21 13:25:38;;;;;;;28.17;3.17;;;;;;;;;;4895289;29;20302;-70
2022/04/21 13:28:06;;;;;;;3.60;1.53;;;;;;;;;;4895764;29;20227;-70
2022/04/21 13:30:33;;;;;;;2.33;1.20;;;;;;;;;;4895161;29;20664;-70
2022/04/21 13:35:45;;;;;;;3.47;1.47;;;;;;;;;;4894969;29;20192;-70
2022/04/21 13:38:12;;;;;;;2.30;1.60;;;;;;;;;;4895161;29;20193;-70
2022/04/21 13:40:38;;;;;;;4.20;1.50;;;;;;;;;;4887982;29;20189;-69
2022/04/21 13:43:05;;;;;;;3.17;1.30;;;;;;;;;;4880519;29;20224;-69
2022/04/21 13:45:54;;;;;;;3.10;1.30;;;;;;;;;;4903232;29;20318;-71
2022/04/21 13:48:21;;;;;;;6.10;1.70;;;;;;;;;;4898029;29;20675;-71
2022/04/21 13:50:48;;;;;;;1.47;1.10;;;;;;;;;;4921486;29;20265;-72
2022/04/21 13:53:15;;;;;;;7.77;1.70;;;;;;;;;;4899847;29;20184;-71
2022/04/21 13:55:42;;;;;;;6.43;1.93;;;;;;;;;;4912103;29;20690;-69
2022/04/21 13:58:09;;;;;;;1.70;1.30;;;;;;;;;;4915360;29;20213;-69
2022/04/21 14:00:40;;;;;;;5.83;1.60;;;;;;;;;;4883367;29;20202;-69
2022/04/21 14:03:07;;;;;;;5.87;1.67;;;;;;;;;;4903406;29;20215;-69
2022/04/21 14:05:34;;;;;;;4.93;1.60;;;;;;;;;;4913444;29;20191;-69
2022/04/21 14:08:02;;;;;;;4.57;1.70;;;;;;;;;;4887209;29;20208;-69
2022/04/21 14:10:28;;;;;;;5.33;1.50;;;;;;;;;;4897413;29;20277;-69
2022/04/21 14:12:56;;;;;;;4.57;1.70;;;;;;;;;;4904624;29;20566;-68
2022/04/21 14:15:25;;;;;;;4.00;1.53;;;;;;;;;;4887126;29;20209;-68
2022/04/21 14:17:52;;;;;;;3.23;1.40;;;;;;;;;;4913716;29;20242;-69
2022/04/21 14:20:19;;;;;;;9.03;2.40;;;;;;;;;;4905891;29;20232;-69
2022/04/21 14:22:46;;;;;;;4.13;1.23;;;;;;;;;;4919423;29;20197;-68
2022/04/21 14:25:14;;;;;;;2.57;1.40;;;;;;;;;;4911572;29;20188;-69
2022/04/21 14:27:42;;;;;;;4.13;1.47;;;;;;;;;;4921434;29;20666;-68
2022/04/21 14:30:09;;;;;;;2.03;1.40;;;;;;;;;;4901611;29;21091;-69
2022/04/21 14:32:36;;;;;;;4.63;1.40;;;;;;;;;;4893869;29;20188;-68
2022/04/21 14:35:03;;;;;;;3.87;1.37;;;;;;;;;;4913997;29;20567;-68
2022/04/21 14:45:46;;;;;;;3.93;1.40;;;;;;;;;;4913571;29;20199;-66
2022/04/21 14:48:13;;;;;;;5.93;1.20;;;;;;;;;;4911226;29;20639;-69
2022/04/21 14:50:40;;;;;;;5.33;1.60;;;;;;;;;;4914631;29;20238;-73
2022/04/21 14:53:07;;;;;;;2.27;1.40;;;;;;;;;;4893325;29;20196;-71
2022/04/21 14:55:34;;;;;;;2.23;1.33;;;;;;;;;;4890031;29;20189;-71
2022/04/21 14:58:01;;;;;;;2.57;1.40;;;;;;;;;;4912890;29;20200;-72
2022/04/21 15:00:29;;;;;;;1.50;1.23;;;;;;;;;;4908563;29;20640;-72
2022/04/21 15:02:56;;;;;;;2.53;1.20;;;;;;;;;;4903188;29;20207;-73
2022/04/21 15:05:41;;;;;;;3.40;1.50;;;;;;;;;;4901987;29;20194;-72
2022/04/21 15:08:09;;;;;;;4.27;1.47;;;;;;;;;;4897213;29;20195;-72
2022/04/21 15:10:37;;;;;;;4.03;1.30;;;;;;;;;;4890310;29;20192;-72
2022/04/21 15:13:04;;;;;;;2.90;1.20;;;;;;;;;;4862605;29;20228;-72
2022/04/21 15:15:31;;;;;;;4.73;1.37;;;;;;;;;;4908341;29;20682;-72
2022/04/21 15:17:58;;;;;;;5.50;1.67;;;;;;;;;;4897508;29;20199;-72
2022/04/21 15:20:26;;;;;;;9.30;1.53;;;;;;;;;;4888901;29;20655;-72
2022/04/21 15:22:53;;;;;;;21.10;2.37;;;;;;;;;;4886584;29;20191;-72
2022/04/21 15:25:20;;;;;;;3.53;1.40;;;;;;;;;;4900785;29;20601;-73
2022/04/21 15:27:46;;;;;;;4.73;1.70;;;;;;;;;;4878018;29;20204;-73
2022/04/21 15:30:14;;;;;;;2.43;1.30;;;;;;;;;;4882285;29;20265;-73
2022/04/21 15:32:41;;;;;;;6.50;1.80;;;;;;;;;;4903718;29;20176;-73
2022/04/21 15:35:08;;;;;;;3.70;1.20;;;;;;;;;;4904852;29;20227;-73
2022/04/21 15:37:35;;;;;;;5.00;1.50;;;;;;;;;;4883287;29;20195;-70
2022/04/21 15:40:02;;;;;;;3.70;1.53;;;;;;;;;;4879355;29;20771;-71
2022/04/21 15:42:29;;;;;;;2.90;1.33;;;;;;;;;;4904880;29;20196;-71
2022/04/21 15:44:55;;;;;;;2.93;1.50;;;;;;;;;;4887774;29;20287;-71
2022/04/21 15:47:22;;;;;;;5.37;1.53;;;;;;;;;;4890029;29;20187;-72
2022/04/21 15:50:08;;;;;;;3.87;1.40;;;;;;;;;;4894531;29;20206;-73
2022/04/21 15:52:35;;;;;;;2.10;1.50;;;;;;;;;;4870067;29;20251;-73
2022/04/21 16:00:34;;;;;;;6.57;1.40;;;;;;;;;;4896924;29;20192;-72
2022/04/21 16:03:01;;;;;;;4.00;1.20;;;;;;;;;;4886650;29;20213;-72